sensor_id;sensor_type;location;lat;lon;timestamp;pressure;altitude;pressure_sealevel;temperature;humidity
38197;BME280;26543;51.976;4.616;2023-04-06T00:00:02;52786.56;;;-140.72;94.41
38197;BME280;26543;51.976;4.616;2023-04-06T00:02:29;52788.59;;;-140.72;87.47
38197;BME280;26543;51.976;4.616;2023-04-06T00:04:55;52810.91;;;-140.72;85.16
38197;BME280;26543;51.976;4.616;2023-04-06T00:07:20;52821.06;;;-140.72;78.85
38197;BME280;26543;51.976;4.616;2023-04-06T00:09:45;52808.88;;;-140.72;71.90
38197;BME280;26543;51.976;4.616;2023-04-06T00:12:11;52827.16;;;-140.72;80.13
38197;BME280;26543;51.976;4.616;2023-04-06T00:14:36;52796.72;;;-140.72;61.38
38197;BME280;26543;51.976;4.616;2023-04-06T00:17:02;52853.53;;;-140.72;53.74
38197;BME280;26543;51.976;4.616;2023-04-06T00:19:27;52833.22;;;-140.72;31.58
38197;BME280;26543;51.976;4.616;2023-04-06T00:21:52;52835.25;;;-140.72;26.93
38197;BME280;26543;51.976;4.616;2023-04-06T00:24:17;52778.44;;;-140.72;0.00
38197;BME280;26543;51.976;4.616;2023-04-06T00:26:43;52802.78;;;-140.72;0.00
38197;BME280;26543;51.976;4.616;2023-04-06T00:29:08;52788.59;;;-140.72;0.00
38197;BME280;26543;51.976;4.616;2023-04-06T00:31:33;52829.19;;;-140.72;0.00
38197;BME280;26543;51.976;4.616;2023-04-06T00:33:58;52827.16;;;-140.72;0.00
38197;BME280;26543;51.976;4.616;2023-04-06T00:36:23;52831.19;;;-140.72;0.00
38197;BME280;26543;51.976;4.616;2023-04-06T00:38:49;52812.94;;;-140.72;0.00
38197;BME280;26543;51.976;4.616;2023-04-06T00:43:49;52758.16;;;-140.72;0.00
38197;BME280;26543;51.976;4.616;2023-04-06T00:48:51;52817.00;;;-140.72;0.00
38197;BME280;26543;51.976;4.616;2023-04-06T00:51:16;52800.75;;;-140.72;0.00
38197;BME280;26543;51.976;4.616;2023-04-06T00:53:41;52772.34;;;-140.72;0.00
38197;BME280;26543;51.976;4.616;2023-04-06T00:56:06;52814.97;;;-140.72;0.00
38197;BME280;26543;51.976;4.616;2023-04-06T00:58:34;52869.75;;;-140.72;0.00
38197;BME280;26543;51.976;4.616;2023-04-06T01:01:02;52794.69;;;-140.72;0.00
38197;BME280;26543;51.976;4.616;2023-04-06T01:03:28;52814.97;;;-140.72;0.00
38197;BME280;26543;51.976;4.616;2023-04-06T01:05:53;52845.41;;;-140.72;0.00
38197;BME280;26543;51.976;4.616;2023-04-06T01:08:23;52804.81;;;-140.72;0.00
38197;BME280;26543;51.976;4.616;2023-04-06T01:10:50;52812.94;;;-140.72;0.00
38197;BME280;26543;51.976;4.616;2023-04-06T01:13:15;52823.09;;;-140.72;0.00
38197;BME280;26543;51.976;4.616;2023-04-06T01:15:40;52849.47;;;-140.72;0.00
38197;BME280;26543;51.976;4.616;2023-04-06T01:18:10;52808.88;;;-140.72;0.00
38197;BME280;26543;51.976;4.616;2023-04-06T01:20:35;52841.34;;;-140.72;0.00
38197;BME280;26543;51.976;4.616;2023-04-06T01:23:13;52835.25;;;-140.72;0.00
38197;BME280;26543;51.976;4.616;2023-04-06T01:25:38;52804.81;;;-140.72;0.00
38197;BME280;26543;51.976;4.616;2023-04-06T01:28:03;52784.53;;;-140.72;0.00
38197;BME280;26543;51.976;4.616;2023-04-06T01:30:28;52845.41;;;-140.72;0.00
38197;BME280;26543;51.976;4.616;2023-04-06T01:32:53;52792.66;;;-140.72;0.00
38197;BME280;26543;51.976;4.616;2023-04-06T01:35:19;52847.44;;;-140.72;0.00
38197;BME280;26543;51.976;4.616;2023-04-06T01:37:44;52827.16;;;-140.72;0.00
38197;BME280;26543;51.976;4.616;2023-04-06T01:40:10;52802.78;;;-140.72;0.00
38197;BME280;26543;51.976;4.616;2023-04-06T01:42:36;52792.66;;;-140.72;0.00
38197;BME280;26543;51.976;4.616;2023-04-06T01:45:01;52819.03;;;-140.72;0.00
38197;BME280;26543;51.976;4.616;2023-04-06T01:47:26;52804.81;;;-140.72;0.00
38197;BME280;26543;51.976;4.616;2023-04-06T01:49:52;52808.88;;;-140.72;0.00
38197;BME280;26543;51.976;4.616;2023-04-06T01:52:17;52825.13;;;-140.72;0.00
38197;BME280;26543;51.976;4.616;2023-04-06T01:54:42;52786.56;;;-140.72;0.00
38197;BME280;26543;51.976;4.616;2023-04-06T01:57:07;52817.00;;;-140.72;0.00
38197;BME280;26543;51.976;4.616;2023-04-06T01:59:33;52806.84;;;-140.72;0.00
38197;BME280;26543;51.976;4.616;2023-04-06T02:01:58;52831.19;;;-140.72;0.00
38197;BME280;26543;51.976;4.616;2023-04-06T02:04:23;52796.72;;;-140.72;0.00
38197;BME280;26543;51.976;4.616;2023-04-06T02:06:48;52825.13;;;-140.72;0.00
38197;BME280;26543;51.976;4.616;2023-04-06T02:09:14;52804.81;;;-140.72;0.00
38197;BME280;26543;51.976;4.616;2023-04-06T02:11:39;52786.56;;;-140.72;0.00
38197;BME280;26543;51.976;4.616;2023-04-06T02:14:04;52784.53;;;-140.72;0.00
38197;BME280;26543;51.976;4.616;2023-04-06T02:16:30;52847.44;;;-140.72;0.00
38197;BME280;26543;51.976;4.616;2023-04-06T02:18:55;52833.22;;;-140.72;0.00
38197;BME280;26543;51.976;4.616;2023-04-06T02:21:23;52817.00;;;-140.72;0.00
38197;BME280;26543;51.976;4.616;2023-04-06T02:23:48;52802.78;;;-140.72;0.00
38197;BME280;26543;51.976;4.616;2023-04-06T02:26:29;52829.19;;;-140.72;0.00
38197;BME280;26543;51.976;4.616;2023-04-06T02:28:54;52825.13;;;-140.72;0.00
38197;BME280;26543;51.976;4.616;2023-04-06T02:31:20;52800.75;;;-140.72;0.00
38197;BME280;26543;51.976;4.616;2023-04-06T02:33:45;52792.66;;;-140.72;0.00
38197;BME280;26543;51.976;4.616;2023-04-06T02:36:10;52788.59;;;-140.72;0.00
38197;BME280;26543;51.976;4.616;2023-04-06T02:41:26;52829.19;;;-140.72;0.00
38197;BME280;26543;51.976;4.616;2023-04-06T02:43:53;52780.47;;;-140.72;0.00
38197;BME280;26543;51.976;4.616;2023-04-06T02:46:18;52794.69;;;-140.72;0.00
38197;BME280;26543;51.976;4.616;2023-04-06T02:48:43;52788.59;;;-140.72;0.00
38197;BME280;26543;51.976;4.616;2023-04-06T02:51:08;52792.66;;;-140.72;0.00
38197;BME280;26543;51.976;4.616;2023-04-06T02:56:06;52808.88;;;-140.72;0.00
38197;BME280;26543;51.976;4.616;2023-04-06T02:58:31;52772.34;;;-140.72;0.00
38197;BME280;26543;51.976;4.616;2023-04-06T03:00:57;52810.91;;;-140.72;0.00
38197;BME280;26543;51.976;4.616;2023-04-06T03:03:22;52798.72;;;-140.72;0.00
38197;BME280;26543;51.976;4.616;2023-04-06T03:05:48;52792.66;;;-140.72;0.00
38197;BME280;26543;51.976;4.616;2023-04-06T03:08:13;52833.22;;;-140.72;0.00
38197;BME280;26543;51.976;4.616;2023-04-06T03:10:38;52774.38;;;-140.72;0.00
38197;BME280;26543;51.976;4.616;2023-04-06T03:13:03;52794.69;;;-140.72;0.00
38197;BME280;26543;51.976;4.616;2023-04-06T03:15:29;52796.72;;;-140.72;0.00
38197;BME280;26543;51.976;4.616;2023-04-06T03:17:54;52772.34;;;-140.72;0.00
38197;BME280;26543;51.976;4.616;2023-04-06T03:20:19;52792.66;;;-140.72;0.00
38197;BME280;26543;51.976;4.616;2023-04-06T03:22:45;52772.34;;;-140.72;0.00
38197;BME280;26543;51.976;4.616;2023-04-06T03:25:10;52762.22;;;-140.72;0.00
38197;BME280;26543;51.976;4.616;2023-04-06T03:27:35;52758.16;;;-140.72;0.00
38197;BME280;26543;51.976;4.616;2023-04-06T03:30:01;52817.00;;;-140.72;0.00
38197;BME280;26543;51.976;4.616;2023-04-06T03:32:26;52792.66;;;-140.72;0.00
38197;BME280;26543;51.976;4.616;2023-04-06T03:34:51;52808.88;;;-140.72;0.00
38197;BME280;26543;51.976;4.616;2023-04-06T03:37:16;52819.03;;;-140.72;0.00
38197;BME280;26543;51.976;4.616;2023-04-06T03:39:42;52788.59;;;-140.72;0.00
38197;BME280;26543;51.976;4.616;2023-04-06T03:42:07;52812.94;;;-140.72;0.00
38197;BME280;26543;51.976;4.616;2023-04-06T03:44:32;52802.78;;;-140.72;0.00
38197;BME280;26543;51.976;4.616;2023-04-06T03:46:57;52800.75;;;-140.72;0.00
38197;BME280;26543;51.976;4.616;2023-04-06T03:49:23;52780.47;;;-140.72;0.00
38197;BME280;26543;51.976;4.616;2023-04-06T03:51:48;52784.53;;;-140.72;0.00
38197;BME280;26543;51.976;4.616;2023-04-06T03:54:13;52792.66;;;-140.72;0.00
38197;BME280;26543;51.976;4.616;2023-04-06T03:56:38;52788.59;;;-140.72;0.00
38197;BME280;26543;51.976;4.616;2023-04-06T03:59:03;52754.09;;;-140.72;0.00
38197;BME280;26543;51.976;4.616;2023-04-06T04:01:29;52806.84;;;-140.72;0.00
38197;BME280;26543;51.976;4.616;2023-04-06T04:03:54;52819.03;;;-140.72;9.56
38197;BME280;26543;51.976;4.616;2023-04-06T04:06:20;52833.22;;;-140.72;23.44
38197;BME280;26543;51.976;4.616;2023-04-06T04:08:45;52821.06;;;-140.72;25.84
38197;BME280;26543;51.976;4.616;2023-04-06T04:11:10;52796.72;;;-140.72;25.01
38197;BME280;26543;51.976;4.616;2023-04-06T04:13:35;52786.56;;;-140.72;25.56
38197;BME280;26543;51.976;4.616;2023-04-06T04:16:01;52743.94;;;-140.72;21.32
38197;BME280;26543;51.976;4.616;2023-04-06T04:18:26;52798.72;;;-140.72;20.36
38197;BME280;26543;51.976;4.616;2023-04-06T04:20:51;52831.19;;;-140.72;21.21
38197;BME280;26543;51.976;4.616;2023-04-06T04:23:17;52808.88;;;-140.72;23.16
38197;BME280;26543;51.976;4.616;2023-04-06T04:25:43;52800.75;;;-140.72;18.51
38197;BME280;26543;51.976;4.616;2023-04-06T04:28:08;52823.09;;;-140.72;20.62
38197;BME280;26543;51.976;4.616;2023-04-06T04:30:33;52784.53;;;-140.72;16.40
38197;BME280;26543;51.976;4.616;2023-04-06T04:32:58;52825.13;;;-140.72;22.39
38197;BME280;26543;51.976;4.616;2023-04-06T04:35:23;52819.03;;;-140.72;10.53
38197;BME280;26543;51.976;4.616;2023-04-06T04:37:49;52835.25;;;-140.72;6.05
38197;BME280;26543;51.976;4.616;2023-04-06T04:40:14;52780.47;;;-140.72;1.91
38197;BME280;26543;51.976;4.616;2023-04-06T04:42:41;52731.75;;;-140.72;0.00
38197;BME280;26543;51.976;4.616;2023-04-06T04:45:06;52802.78;;;-140.72;0.00
38197;BME280;26543;51.976;4.616;2023-04-06T04:47:32;52780.47;;;-140.72;0.00
38197;BME280;26543;51.976;4.616;2023-04-06T04:49:57;52802.78;;;-140.72;0.00
38197;BME280;26543;51.976;4.616;2023-04-06T04:52:22;52788.59;;;-140.72;0.00
38197;BME280;26543;51.976;4.616;2023-04-06T04:54:47;52790.63;;;-140.72;0.00
38197;BME280;26543;51.976;4.616;2023-04-06T04:57:12;52798.72;;;-140.72;0.00
38197;BME280;26543;51.976;4.616;2023-04-06T04:59:38;52780.47;;;-140.72;0.00
38197;BME280;26543;51.976;4.616;2023-04-06T05:02:03;52800.75;;;-140.72;0.00
38197;BME280;26543;51.976;4.616;2023-04-06T05:04:28;52770.31;;;-140.72;0.00
38197;BME280;26543;51.976;4.616;2023-04-06T05:07:06;52774.38;;;-140.72;0.00
38197;BME280;26543;51.976;4.616;2023-04-06T05:09:31;52780.47;;;-140.72;0.00
38197;BME280;26543;51.976;4.616;2023-04-06T05:11:58;52786.56;;;-140.72;0.00
38197;BME280;26543;51.976;4.616;2023-04-06T05:14:23;52784.53;;;-140.72;0.00
38197;BME280;26543;51.976;4.616;2023-04-06T05:16:48;52780.47;;;-140.72;0.00
38197;BME280;26543;51.976;4.616;2023-04-06T05:19:14;52782.50;;;-140.72;0.00
38197;BME280;26543;51.976;4.616;2023-04-06T05:21:39;52786.56;;;-140.72;0.00
38197;BME280;26543;51.976;4.616;2023-04-06T05:24:05;52788.59;;;-140.72;0.00
38197;BME280;26543;51.976;4.616;2023-04-06T05:26:38;52743.94;;;-140.72;0.00
38197;BME280;26543;51.976;4.616;2023-04-06T05:29:03;52796.72;;;-140.72;0.00
38197;BME280;26543;51.976;4.616;2023-04-06T05:31:28;52752.06;;;-140.72;0.00
38197;BME280;26543;51.976;4.616;2023-04-06T05:33:54;52772.34;;;-140.72;0.00
38197;BME280;26543;51.976;4.616;2023-04-06T05:36:20;52798.72;;;-140.72;0.00
38197;BME280;26543;51.976;4.616;2023-04-06T05:38:45;52778.44;;;-140.72;0.00
38197;BME280;26543;51.976;4.616;2023-04-06T05:41:10;52774.38;;;-140.72;0.00
38197;BME280;26543;51.976;4.616;2023-04-06T05:43:36;52804.81;;;-140.72;0.00
38197;BME280;26543;51.976;4.616;2023-04-06T05:46:01;52776.41;;;-140.72;0.00
38197;BME280;26543;51.976;4.616;2023-04-06T05:48:27;52788.59;;;-140.72;0.00
38197;BME280;26543;51.976;4.616;2023-04-06T05:50:52;52792.66;;;-140.72;0.00
38197;BME280;26543;51.976;4.616;2023-04-06T05:53:18;52812.94;;;-140.72;0.00
38197;BME280;26543;51.976;4.616;2023-04-06T05:55:43;52792.66;;;-140.72;0.00
38197;BME280;26543;51.976;4.616;2023-04-06T05:58:09;52790.63;;;-140.72;0.00
38197;BME280;26543;51.976;4.616;2023-04-06T06:00:34;52796.72;;;-140.72;0.00
38197;BME280;26543;51.976;4.616;2023-04-06T06:02:59;52748.00;;;-140.72;0.00
38197;BME280;26543;51.976;4.616;2023-04-06T06:05:24;52764.25;;;-140.72;0.00
38197;BME280;26543;51.976;4.616;2023-04-06T06:07:50;52817.00;;;-140.72;0.00
38197;BME280;26543;51.976;4.616;2023-04-06T06:10:15;52821.06;;;-140.72;0.00
38197;BME280;26543;51.976;4.616;2023-04-06T06:12:40;52774.38;;;-140.72;0.00
38197;BME280;26543;51.976;4.616;2023-04-06T06:15:06;52778.44;;;-140.72;0.00
38197;BME280;26543;51.976;4.616;2023-04-06T06:17:31;52760.19;;;-140.72;0.00
38197;BME280;26543;51.976;4.616;2023-04-06T06:19:56;52782.50;;;-140.72;0.00
38197;BME280;26543;51.976;4.616;2023-04-06T06:22:22;52776.41;;;-140.72;0.00
38197;BME280;26543;51.976;4.616;2023-04-06T06:24:50;52780.47;;;-140.72;0.00
38197;BME280;26543;51.976;4.616;2023-04-06T06:27:15;52752.06;;;-140.72;0.00
38197;BME280;26543;51.976;4.616;2023-04-06T06:29:41;52766.25;;;-140.72;0.00
38197;BME280;26543;51.976;4.616;2023-04-06T06:32:06;52808.88;;;-140.72;0.00
38197;BME280;26543;51.976;4.616;2023-04-06T06:34:33;52745.97;;;-140.72;0.00
38197;BME280;26543;51.976;4.616;2023-04-06T06:36:58;52776.41;;;-140.72;0.00
38197;BME280;26543;51.976;4.616;2023-04-06T06:39:23;52788.59;;;-140.72;0.00
38197;BME280;26543;51.976;4.616;2023-04-06T06:41:48;52756.13;;;-140.72;0.00
38197;BME280;26543;51.976;4.616;2023-04-06T06:44:14;52745.97;;;-140.72;0.00
38197;BME280;26543;51.976;4.616;2023-04-06T06:46:39;52774.38;;;-140.72;0.00
38197;BME280;26543;51.976;4.616;2023-04-06T06:49:05;52764.25;;;-140.72;0.00
38197;BME280;26543;51.976;4.616;2023-04-06T06:51:30;52735.81;;;-140.72;0.00
38197;BME280;26543;51.976;4.616;2023-04-06T06:53:56;52756.13;;;-140.72;0.00
38197;BME280;26543;51.976;4.616;2023-04-06T06:56:23;52709.44;;;-140.72;0.00
38197;BME280;26543;51.976;4.616;2023-04-06T06:58:49;52697.28;;;-140.72;0.00
38197;BME280;26543;51.976;4.616;2023-04-06T07:01:14;52733.78;;;-140.72;0.00
38197;BME280;26543;51.976;4.616;2023-04-06T07:03:40;52691.19;;;-140.72;0.00
38197;BME280;26543;51.976;4.616;2023-04-06T07:06:05;52683.06;;;-140.72;0.00
38197;BME280;26543;51.976;4.616;2023-04-06T07:08:31;52719.59;;;-140.72;0.00
38197;BME280;26543;51.976;4.616;2023-04-06T07:10:56;52752.06;;;-140.72;0.00
38197;BME280;26543;51.976;4.616;2023-04-06T07:13:21;52709.44;;;-140.72;0.00
38197;BME280;26543;51.976;4.616;2023-04-06T07:15:48;52752.06;;;-140.72;0.00
38197;BME280;26543;51.976;4.616;2023-04-06T07:18:14;52699.31;;;-140.72;0.00
38197;BME280;26543;51.976;4.616;2023-04-06T07:20:39;52750.03;;;-140.72;0.00
38197;BME280;26543;51.976;4.616;2023-04-06T07:23:04;52723.66;;;-140.72;0.00
38197;BME280;26543;51.976;4.616;2023-04-06T07:25:30;52739.88;;;-140.72;0.00
38197;BME280;26543;51.976;4.616;2023-04-06T07:27:55;52743.94;;;-140.72;0.00
38197;BME280;26543;51.976;4.616;2023-04-06T07:30:21;52725.69;;;-140.72;0.00
38197;BME280;26543;51.976;4.616;2023-04-06T07:32:47;52715.53;;;-140.72;0.00
38197;BME280;26543;51.976;4.616;2023-04-06T07:35:12;52739.88;;;-140.72;0.00
38197;BME280;26543;51.976;4.616;2023-04-06T07:37:37;52731.75;;;-140.72;0.00
38197;BME280;26543;51.976;4.616;2023-04-06T07:40:02;52715.53;;;-140.72;0.00
38197;BME280;26543;51.976;4.616;2023-04-06T07:42:28;52691.19;;;-140.72;0.00
38197;BME280;26543;51.976;4.616;2023-04-06T07:44:53;52703.34;;;-140.72;0.00
38197;BME280;26543;51.976;4.616;2023-04-06T07:47:18;52707.41;;;-140.72;0.00
38197;BME280;26543;51.976;4.616;2023-04-06T07:49:44;52739.88;;;-140.72;0.00
38197;BME280;26543;51.976;4.616;2023-04-06T07:52:10;52679.00;;;-140.72;0.00
38197;BME280;26543;51.976;4.616;2023-04-06T07:54:35;52743.94;;;-140.72;0.00
38197;BME280;26543;51.976;4.616;2023-04-06T07:57:00;52725.69;;;-140.72;0.00
38197;BME280;26543;51.976;4.616;2023-04-06T07:59:25;52739.88;;;-140.72;0.00
38197;BME280;26543;51.976;4.616;2023-04-06T08:01:51;52719.59;;;-140.72;0.00
38197;BME280;26543;51.976;4.616;2023-04-06T08:04:16;52723.66;;;-140.72;0.00
38197;BME280;26543;51.976;4.616;2023-04-06T08:06:41;52723.66;;;-140.72;0.00
38197;BME280;26543;51.976;4.616;2023-04-06T08:09:10;52693.22;;;-140.72;0.00
38197;BME280;26543;51.976;4.616;2023-04-06T08:11:35;52741.91;;;-140.72;0.00
38197;BME280;26543;51.976;4.616;2023-04-06T08:14:03;52691.19;;;-140.72;0.00
38197;BME280;26543;51.976;4.616;2023-04-06T08:16:28;52687.13;;;-140.72;0.00
38197;BME280;26543;51.976;4.616;2023-04-06T08:18:54;52715.53;;;-140.72;0.00
38197;BME280;26543;51.976;4.616;2023-04-06T08:21:19;52695.25;;;-140.72;12.81
38197;BME280;26543;51.976;4.616;2023-04-06T08:23:44;52707.41;;;-140.72;45.72
38197;BME280;26543;51.976;4.616;2023-04-06T08:26:11;52687.13;;;-140.72;100.00
38197;BME280;26543;51.976;4.616;2023-04-06T08:28:36;52735.81;;;-140.72;100.00
38197;BME280;26543;51.976;4.616;2023-04-06T08:31:04;52748.00;;;-140.72;100.00
38197;BME280;26543;51.976;4.616;2023-04-06T08:33:30;52752.06;;;-140.72;100.00
38197;BME280;26543;51.976;4.616;2023-04-06T08:35:56;52735.81;;;-140.72;100.00
38197;BME280;26543;51.976;4.616;2023-04-06T08:38:21;52666.84;;;-140.72;100.00
38197;BME280;26543;51.976;4.616;2023-04-06T08:40:46;52691.19;;;-140.72;100.00
38197;BME280;26543;51.976;4.616;2023-04-06T08:43:13;52707.41;;;-140.72;100.00
38197;BME280;26543;51.976;4.616;2023-04-06T08:45:40;52687.13;;;-140.72;100.00
38197;BME280;26543;51.976;4.616;2023-04-06T08:48:05;52709.44;;;-140.72;100.00
38197;BME280;26543;51.976;4.616;2023-04-06T08:50:32;52717.56;;;-140.72;100.00
38197;BME280;26543;51.976;4.616;2023-04-06T08:52:57;52679.00;;;-140.72;100.00
38197;BME280;26543;51.976;4.616;2023-04-06T08:55:23;52713.50;;;-140.72;100.00
38197;BME280;26543;51.976;4.616;2023-04-06T08:57:48;52679.00;;;-140.72;100.00
38197;BME280;26543;51.976;4.616;2023-04-06T09:00:14;52691.19;;;-140.72;100.00
38197;BME280;26543;51.976;4.616;2023-04-06T09:02:42;52709.44;;;-140.72;100.00
38197;BME280;26543;51.976;4.616;2023-04-06T09:05:08;52705.38;;;-140.72;100.00
38197;BME280;26543;51.976;4.616;2023-04-06T09:07:35;52719.59;;;-140.72;100.00
38197;BME280;26543;51.976;4.616;2023-04-06T09:10:00;52676.97;;;-140.72;100.00
38197;BME280;26543;51.976;4.616;2023-04-06T09:12:30;52711.47;;;-140.72;100.00
38197;BME280;26543;51.976;4.616;2023-04-06T09:14:56;52695.25;;;-140.72;100.00
38197;BME280;26543;51.976;4.616;2023-04-06T09:17:22;52723.66;;;-140.72;100.00
38197;BME280;26543;51.976;4.616;2023-04-06T09:19:47;52676.97;;;-140.72;100.00
38197;BME280;26543;51.976;4.616;2023-04-06T09:22:13;52652.63;;;-140.72;100.00
38197;BME280;26543;51.976;4.616;2023-04-06T09:27:10;52705.38;;;-140.72;100.00
38197;BME280;26543;51.976;4.616;2023-04-06T09:29:35;52713.50;;;-140.72;100.00
38197;BME280;26543;51.976;4.616;2023-04-06T09:32:02;52695.25;;;-140.72;100.00
38197;BME280;26543;51.976;4.616;2023-04-06T09:34:27;52739.88;;;-140.72;100.00
38197;BME280;26543;51.976;4.616;2023-04-06T09:36:52;52707.41;;;-140.72;100.00
38197;BME280;26543;51.976;4.616;2023-04-06T09:39:20;52711.47;;;-140.72;100.00
38197;BME280;26543;51.976;4.616;2023-04-06T09:41:48;52731.75;;;-140.72;100.00
38197;BME280;26543;51.976;4.616;2023-04-06T09:44:13;52725.69;;;-140.72;100.00
38197;BME280;26543;51.976;4.616;2023-04-06T09:46:42;52723.66;;;-140.72;100.00
38197;BME280;26543;51.976;4.616;2023-04-06T09:49:10;52693.22;;;-140.72;100.00
38197;BME280;26543;51.976;4.616;2023-04-06T09:51:36;52725.69;;;-140.72;100.00
38197;BME280;26543;51.976;4.616;2023-04-06T09:54:02;52725.69;;;-140.72;100.00
38197;BME280;26543;51.976;4.616;2023-04-06T09:57:03;52695.25;;;-140.72;100.00
38197;BME280;26543;51.976;4.616;2023-04-06T09:59:23;52750.03;;;-140.72;100.00
38197;BME280;26543;51.976;4.616;2023-04-06T10:01:51;52729.75;;;-140.72;100.00
38197;BME280;26543;51.976;4.616;2023-04-06T10:06:51;52711.47;;;-140.72;100.00
38197;BME280;26543;51.976;4.616;2023-04-06T10:09:17;52745.97;;;-140.72;100.00
38197;BME280;26543;51.976;4.616;2023-04-06T10:11:43;52723.66;;;-140.72;100.00
38197;BME280;26543;51.976;4.616;2023-04-06T10:14:09;52715.53;;;-140.72;100.00
38197;BME280;26543;51.976;4.616;2023-04-06T10:16:36;52711.47;;;-140.72;100.00
38197;BME280;26543;51.976;4.616;2023-04-06T10:19:04;52711.47;;;-140.72;100.00
38197;BME280;26543;51.976;4.616;2023-04-06T10:21:32;52756.13;;;-140.72;100.00
38197;BME280;26543;51.976;4.616;2023-04-06T10:23:58;52748.00;;;-140.72;100.00
38197;BME280;26543;51.976;4.616;2023-04-06T10:26:24;52745.97;;;-140.72;100.00
38197;BME280;26543;51.976;4.616;2023-04-06T10:28:50;52776.41;;;-140.72;100.00
38197;BME280;26543;51.976;4.616;2023-04-06T10:31:15;52762.22;;;-140.72;100.00
38197;BME280;26543;51.976;4.616;2023-04-06T10:33:55;52715.53;;;-140.72;100.00
38197;BME280;26543;51.976;4.616;2023-04-06T10:36:22;52774.38;;;-140.72;100.00
38197;BME280;26543;51.976;4.616;2023-04-06T10:38:53;52764.25;;;-140.72;100.00
38197;BME280;26543;51.976;4.616;2023-04-06T10:41:18;52776.41;;;-140.72;100.00
38197;BME280;26543;51.976;4.616;2023-04-06T10:43:43;52731.75;;;-140.72;100.00
38197;BME280;26543;51.976;4.616;2023-04-06T10:46:09;52762.22;;;-140.72;100.00
38197;BME280;26543;51.976;4.616;2023-04-06T10:48:38;52754.09;;;-140.72;100.00
38197;BME280;26543;51.976;4.616;2023-04-06T10:51:11;52808.88;;;-140.72;100.00
38197;BME280;26543;51.976;4.616;2023-04-06T10:53:37;52762.22;;;-140.72;100.00
38197;BME280;26543;51.976;4.616;2023-04-06T10:56:02;52764.25;;;-140.72;100.00
38197;BME280;26543;51.976;4.616;2023-04-06T10:58:28;52760.19;;;-140.72;100.00
38197;BME280;26543;51.976;4.616;2023-04-06T11:00:55;52741.91;;;-140.72;100.00
38197;BME280;26543;51.976;4.616;2023-04-06T11:03:20;52748.00;;;-140.72;100.00
38197;BME280;26543;51.976;4.616;2023-04-06T11:05:47;52739.88;;;-140.72;100.00
38197;BME280;26543;51.976;4.616;2023-04-06T11:08:22;52772.34;;;-140.72;100.00
38197;BME280;26543;51.976;4.616;2023-04-06T11:10:47;52756.13;;;-140.72;100.00
38197;BME280;26543;51.976;4.616;2023-04-06T11:13:14;52760.19;;;-140.72;100.00
38197;BME280;26543;51.976;4.616;2023-04-06T11:15:39;52762.22;;;-140.72;100.00
38197;BME280;26543;51.976;4.616;2023-04-06T11:18:05;52774.38;;;-140.72;100.00
38197;BME280;26543;51.976;4.616;2023-04-06T11:20:30;52756.13;;;-140.72;100.00
38197;BME280;26543;51.976;4.616;2023-04-06T11:22:55;52768.28;;;-140.72;100.00
38197;BME280;26543;51.976;4.616;2023-04-06T11:25:20;52768.28;;;-140.72;100.00
38197;BME280;26543;51.976;4.616;2023-04-06T11:27:46;52768.28;;;-140.72;100.00
38197;BME280;26543;51.976;4.616;2023-04-06T11:30:12;52782.50;;;-140.72;100.00
38197;BME280;26543;51.976;4.616;2023-04-06T11:32:44;52762.22;;;-140.72;100.00
38197;BME280;26543;51.976;4.616;2023-04-06T11:35:19;52758.16;;;-140.72;100.00
38197;BME280;26543;51.976;4.616;2023-04-06T11:37:45;52768.28;;;-140.72;100.00
38197;BME280;26543;51.976;4.616;2023-04-06T11:40:10;52729.75;;;-140.72;100.00
38197;BME280;26543;51.976;4.616;2023-04-06T11:42:36;52766.25;;;-140.72;100.00
38197;BME280;26543;51.976;4.616;2023-04-06T11:45:01;52790.63;;;-140.72;100.00
38197;BME280;26543;51.976;4.616;2023-04-06T11:47:27;52741.91;;;-140.72;100.00
38197;BME280;26543;51.976;4.616;2023-04-06T11:49:53;52776.41;;;-140.72;100.00
38197;BME280;26543;51.976;4.616;2023-04-06T11:52:25;52780.47;;;-140.72;100.00
38197;BME280;26543;51.976;4.616;2023-04-06T11:54:51;52786.56;;;-140.72;100.00
38197;BME280;26543;51.976;4.616;2023-04-06T11:57:17;52756.13;;;-140.72;100.00
38197;BME280;26543;51.976;4.616;2023-04-06T11:59:43;52780.47;;;-140.72;100.00
38197;BME280;26543;51.976;4.616;2023-04-06T12:02:08;52800.75;;;-140.72;100.00
38197;BME280;26543;51.976;4.616;2023-04-06T12:04:34;52768.28;;;-140.72;100.00
38197;BME280;26543;51.976;4.616;2023-04-06T12:06:59;52764.25;;;-140.72;100.00
38197;BME280;26543;51.976;4.616;2023-04-06T12:09:25;52817.00;;;-140.72;100.00
38197;BME280;26543;51.976;4.616;2023-04-06T12:11:50;52760.19;;;-140.72;100.00
38197;BME280;26543;51.976;4.616;2023-04-06T12:14:16;52780.47;;;-140.72;100.00
38197;BME280;26543;51.976;4.616;2023-04-06T12:16:41;52804.81;;;-140.72;100.00
38197;BME280;26543;51.976;4.616;2023-04-06T12:19:06;52798.72;;;-140.72;100.00
38197;BME280;26543;51.976;4.616;2023-04-06T12:21:31;52776.41;;;-140.72;100.00
38197;BME280;26543;51.976;4.616;2023-04-06T12:23:57;52827.16;;;-140.72;100.00
38197;BME280;26543;51.976;4.616;2023-04-06T12:26:23;52760.19;;;-140.72;100.00
38197;BME280;26543;51.976;4.616;2023-04-06T12:28:48;52780.47;;;-140.72;100.00
38197;BME280;26543;51.976;4.616;2023-04-06T12:31:16;52770.31;;;-140.72;100.00
38197;BME280;26543;51.976;4.616;2023-04-06T12:33:42;52776.41;;;-140.72;100.00
38197;BME280;26543;51.976;4.616;2023-04-06T12:36:19;52768.28;;;-140.72;100.00
38197;BME280;26543;51.976;4.616;2023-04-06T12:38:49;52782.50;;;-140.72;100.00
38197;BME280;26543;51.976;4.616;2023-04-06T12:41:15;52776.41;;;-140.72;100.00
38197;BME280;26543;51.976;4.616;2023-04-06T12:43:41;52760.19;;;-140.72;100.00
38197;BME280;26543;51.976;4.616;2023-04-06T12:46:06;52766.25;;;-140.72;100.00
38197;BME280;26543;51.976;4.616;2023-04-06T12:48:32;52810.91;;;-140.72;100.00
38197;BME280;26543;51.976;4.616;2023-04-06T12:50:57;52743.94;;;-140.72;100.00